createdAt,value
2022-10-05T00:00:59.319Z,18.00
2022-10-05T00:03:37.314Z,18.00
2022-10-05T00:06:12.499Z,18.00
2022-10-05T00:08:45.209Z,18.00
2022-10-05T00:11:17.738Z,18.00
2022-10-05T00:13:50.251Z,18.10
2022-10-05T00:16:22.825Z,18.00
2022-10-05T00:18:55.300Z,18.10
2022-10-05T00:21:29.301Z,18.10
2022-10-05T00:24:02.159Z,18.10
2022-10-05T00:26:34.689Z,18.10
2022-10-05T00:29:29.041Z,18.10
2022-10-05T00:32:03.365Z,18.10
2022-10-05T00:34:35.916Z,18.10
2022-10-05T00:37:08.659Z,18.10
2022-10-05T00:39:41.514Z,18.10
2022-10-05T00:42:20.703Z,18.10
2022-10-05T00:45:01.913Z,18.00
2022-10-05T00:48:00.723Z,18.10
2022-10-05T00:50:49.333Z,18.10
2022-10-05T00:53:35.000Z,18.10
2022-10-05T00:56:14.305Z,18.00
2022-10-05T00:58:55.273Z,18.00
2022-10-05T01:01:39.662Z,18.00
2022-10-05T01:04:19.512Z,17.90
2022-10-05T01:07:04.410Z,17.90
2022-10-05T01:10:03.464Z,17.90
2022-10-05T01:13:06.668Z,17.90
2022-10-05T01:15:59.055Z,17.80
2022-10-05T01:18:51.638Z,17.80
2022-10-05T01:21:27.202Z,17.70
2022-10-05T01:24:25.868Z,17.70
2022-10-05T01:27:05.238Z,17.60
2022-10-05T01:29:54.667Z,17.50
2022-10-05T01:32:43.082Z,17.50
2022-10-05T01:35:34.686Z,17.50
2022-10-05T01:38:18.395Z,17.50
2022-10-05T01:41:11.781Z,17.40
2022-10-05T01:43:49.641Z,17.40
2022-10-05T01:46:32.974Z,17.40
2022-10-05T01:49:23.073Z,17.40
2022-10-05T01:52:04.082Z,17.40
2022-10-05T01:55:02.465Z,17.30
2022-10-05T01:57:38.702Z,17.30
2022-10-05T02:00:15.737Z,17.20
2022-10-05T02:02:59.182Z,17.20
2022-10-05T02:05:57.503Z,17.20
2022-10-05T02:08:39.102Z,17.10
2022-10-05T02:11:15.326Z,17.10
2022-10-05T02:13:49.739Z,17.10
2022-10-05T02:16:35.196Z,17.10
2022-10-05T02:19:25.056Z,17.00
2022-10-05T02:22:10.690Z,17.00
2022-10-05T02:24:52.641Z,16.90
2022-10-05T02:27:31.848Z,16.90
2022-10-05T02:30:10.477Z,16.90
2022-10-05T02:32:56.897Z,16.90
2022-10-05T02:35:29.627Z,16.80
2022-10-05T02:38:23.348Z,16.80
2022-10-05T02:41:16.359Z,16.80
2022-10-05T02:43:52.674Z,16.80
2022-10-05T02:46:36.938Z,16.70
2022-10-05T02:49:36.650Z,16.80
2022-10-05T02:52:14.750Z,16.70
2022-10-05T02:55:02.591Z,16.70
2022-10-05T02:57:47.731Z,16.60
2022-10-05T03:00:24.455Z,16.60
2022-10-05T03:03:11.028Z,16.60
2022-10-05T03:05:48.806Z,16.60
2022-10-05T03:08:33.482Z,16.60
2022-10-05T03:11:30.083Z,16.50
2022-10-05T03:14:21.659Z,16.40
2022-10-05T03:17:07.191Z,16.40
2022-10-05T03:19:47.402Z,16.30
2022-10-05T03:22:35.513Z,16.30
2022-10-05T03:25:24.958Z,16.30
2022-10-05T03:28:17.773Z,16.30
2022-10-05T03:31:01.041Z,16.30
2022-10-05T03:34:00.781Z,16.30
2022-10-05T03:36:53.541Z,16.30
2022-10-05T03:39:31.925Z,16.30
2022-10-05T03:42:20.952Z,16.30
2022-10-05T03:44:57.690Z,16.30
2022-10-05T03:47:51.539Z,16.20
2022-10-05T03:50:40.978Z,16.20
2022-10-05T03:53:19.863Z,16.20
2022-10-05T03:56:03.078Z,16.20
2022-10-05T03:58:56.133Z,16.10
2022-10-05T04:01:43.541Z,16.10
2022-10-05T04:04:34.784Z,16.00
2022-10-05T04:07:15.588Z,16.00
2022-10-05T04:09:53.236Z,16.00
2022-10-05T04:12:36.754Z,16.00
2022-10-05T04:15:32.138Z,16.10
2022-10-05T04:18:11.920Z,16.00
2022-10-05T04:20:52.506Z,16.00
2022-10-05T04:23:36.994Z,16.00
2022-10-05T04:26:18.043Z,16.00
2022-10-05T04:29:01.334Z,16.00
2022-10-05T04:31:56.330Z,16.00
2022-10-05T04:34:32.150Z,15.90
2022-10-05T04:37:15.495Z,15.90
2022-10-05T04:40:11.479Z,15.90
2022-10-05T04:42:56.148Z,15.80
2022-10-05T04:45:44.582Z,15.80
2022-10-05T04:48:28.985Z,16.70
2022-10-05T04:51:22.570Z,15.80
2022-10-05T04:54:03.148Z,15.70
2022-10-05T04:56:50.178Z,15.70
2022-10-05T04:59:46.904Z,15.70
2022-10-05T05:02:21.256Z,15.70
2022-10-05T05:05:09.041Z,15.60
2022-10-05T05:08:01.332Z,15.70
2022-10-05T05:10:54.328Z,15.60
2022-10-05T05:13:43.291Z,15.60
2022-10-05T05:16:33.205Z,15.50
2022-10-05T05:19:31.338Z,15.50
2022-10-05T05:22:08.864Z,15.50
2022-10-05T05:24:55.101Z,15.50
2022-10-05T05:27:42.397Z,15.50
2022-10-05T05:30:23.537Z,15.50
2022-10-05T05:32:58.531Z,15.50
2022-10-05T05:35:31.780Z,15.40
2022-10-05T05:38:35.107Z,15.50
2022-10-05T05:41:25.378Z,15.40
2022-10-05T05:44:06.328Z,15.50
2022-10-05T05:47:02.917Z,15.50
2022-10-05T05:49:55.061Z,15.50
2022-10-05T05:52:47.422Z,15.50
2022-10-05T05:55:30.219Z,15.50
2022-10-05T05:58:28.734Z,15.60
2022-10-05T06:01:32.188Z,15.50
2022-10-05T06:04:28.411Z,15.60
2022-10-05T06:07:05.133Z,15.70
2022-10-05T06:09:46.349Z,15.70
2022-10-05T06:12:46.165Z,15.80
2022-10-05T06:15:42.443Z,15.80
2022-10-05T06:18:19.768Z,15.80
2022-10-05T06:21:00.999Z,15.90
2022-10-05T06:23:49.409Z,15.90
2022-10-05T06:26:38.376Z,16.00
2022-10-05T06:29:19.592Z,16.00
2022-10-05T06:32:06.424Z,16.10
2022-10-05T06:34:54.089Z,16.20
2022-10-05T06:37:37.960Z,16.20
2022-10-05T06:40:28.286Z,16.30
2022-10-05T06:43:14.422Z,16.40
2022-10-05T06:46:19.451Z,16.40
2022-10-05T06:49:16.337Z,16.50
2022-10-05T06:52:08.709Z,16.60
2022-10-05T06:55:08.631Z,16.60
2022-10-05T06:58:01.863Z,16.80
2022-10-05T07:00:49.683Z,16.70
2022-10-05T07:03:45.442Z,16.80
2022-10-05T07:06:34.643Z,16.90
2022-10-05T07:09:27.148Z,16.90
2022-10-05T07:12:11.031Z,17.00
2022-10-05T07:14:58.917Z,17.20
2022-10-05T07:17:44.428Z,17.10
2022-10-05T07:20:40.381Z,17.20
2022-10-05T07:23:36.995Z,17.30
2022-10-05T07:26:12.435Z,17.40
2022-10-05T07:28:46.103Z,17.40
2022-10-05T07:31:23.070Z,17.40
2022-10-05T07:34:07.082Z,17.50
2022-10-05T07:37:03.398Z,17.50
2022-10-05T07:40:01.390Z,17.60
2022-10-05T07:43:04.275Z,17.70
2022-10-05T07:45:55.444Z,17.70
2022-10-05T07:48:45.109Z,17.80
2022-10-05T07:51:34.439Z,17.80
2022-10-05T07:54:24.971Z,17.90
2022-10-05T07:56:59.382Z,18.00
2022-10-05T08:00:00.003Z,18.00
2022-10-05T08:02:42.143Z,18.00
2022-10-05T08:05:26.110Z,18.00
2022-10-05T08:08:19.791Z,18.10
2022-10-05T08:11:03.831Z,18.30
2022-10-05T08:13:42.801Z,18.30
2022-10-05T08:16:17.060Z,18.40
2022-10-05T08:18:57.724Z,18.50
2022-10-05T08:21:37.650Z,18.60
2022-10-05T08:24:26.138Z,18.70
2022-10-05T08:27:25.430Z,18.70
2022-10-05T08:30:03.165Z,18.80
2022-10-05T08:32:41.647Z,18.80
2022-10-05T08:35:34.660Z,18.90
2022-10-05T08:38:18.817Z,18.90
2022-10-05T08:41:07.452Z,19.00
2022-10-05T08:43:46.842Z,19.00
2022-10-05T08:46:38.360Z,19.00
2022-10-05T08:49:35.149Z,19.10
2022-10-05T08:52:32.190Z,19.20
2022-10-05T08:55:36.418Z,19.20
2022-10-05T08:58:39.609Z,19.30
2022-10-05T09:01:22.377Z,19.40
2022-10-05T09:04:19.421Z,19.40
2022-10-05T09:07:17.859Z,19.50
2022-10-05T09:10:21.202Z,19.60
2022-10-05T09:13:24.336Z,19.70
2022-10-05T09:16:14.046Z,19.80
2022-10-05T09:18:48.360Z,19.80
2022-10-05T09:21:46.653Z,19.80
2022-10-05T09:24:28.375Z,19.90
2022-10-05T09:27:04.215Z,20.00
2022-10-05T09:30:04.869Z,20.00
2022-10-05T09:33:04.310Z,20.10
2022-10-05T09:36:06.002Z,20.10
2022-10-05T09:38:57.416Z,20.20
2022-10-05T09:41:57.537Z,20.20
2022-10-05T09:44:55.008Z,20.30
2022-10-05T09:47:47.003Z,20.40
2022-10-05T09:50:23.585Z,20.50
2022-10-05T09:53:01.088Z,20.50
2022-10-05T09:55:47.684Z,20.60
2022-10-05T09:58:29.762Z,20.70
2022-10-05T10:01:33.162Z,20.80
2022-10-05T10:04:20.655Z,20.90
2022-10-05T10:07:09.994Z,20.90
2022-10-05T10:10:00.665Z,21.10
2022-10-05T10:12:53.980Z,21.10
2022-10-05T10:15:45.673Z,21.10
2022-10-05T10:18:35.944Z,21.10
2022-10-05T10:21:39.908Z,21.10
2022-10-05T10:24:23.161Z,21.20
2022-10-05T10:27:21.199Z,21.30
2022-10-05T10:30:05.217Z,21.30
2022-10-05T10:33:00.994Z,21.40
2022-10-05T10:35:38.126Z,21.50
2022-10-05T10:38:30.468Z,21.50
2022-10-05T10:41:14.649Z,21.60
2022-10-05T10:44:05.870Z,21.60
2022-10-05T10:46:54.043Z,21.60
2022-10-05T10:49:28.604Z,21.70
2022-10-05T10:52:15.166Z,21.70
2022-10-05T10:55:00.049Z,21.80
2022-10-05T10:57:49.717Z,21.80
2022-10-05T11:00:40.227Z,21.90
2022-10-05T11:03:31.930Z,21.90
2022-10-05T11:06:25.131Z,22.00
2022-10-05T11:09:28.673Z,22.10
2022-10-05T11:12:34.740Z,22.20
2022-10-05T11:15:09.641Z,22.20
2022-10-05T11:18:07.908Z,22.20
2022-10-05T11:21:00.915Z,22.30
2022-10-05T11:23:57.048Z,22.30
2022-10-05T11:26:57.443Z,22.30
2022-10-05T11:29:46.294Z,22.30
2022-10-05T11:32:20.607Z,22.40
2022-10-05T11:35:11.267Z,22.40
2022-10-05T11:38:06.617Z,22.40
2022-10-05T11:40:55.287Z,22.40
2022-10-05T11:43:55.928Z,22.50
2022-10-05T11:46:47.058Z,22.50
2022-10-05T11:49:28.740Z,22.50
2022-10-05T11:52:07.186Z,22.60
2022-10-05T11:55:05.820Z,22.70
2022-10-05T11:57:39.046Z,22.70
2022-10-05T12:00:14.510Z,22.70
2022-10-05T12:03:09.788Z,22.90
2022-10-05T12:05:48.113Z,22.90
2022-10-05T12:08:52.058Z,23.00
2022-10-05T12:11:57.664Z,22.90
2022-10-05T12:14:44.521Z,23.00
2022-10-05T12:17:25.290Z,23.00
2022-10-05T12:20:13.490Z,23.00
2022-10-05T12:22:53.254Z,23.00
2022-10-05T12:25:46.513Z,23.10
2022-10-05T12:28:27.851Z,23.10
2022-10-05T12:31:19.484Z,23.10
2022-10-05T12:34:11.471Z,23.00
2022-10-05T12:37:09.009Z,23.10
2022-10-05T12:39:53.804Z,23.10
2022-10-05T12:42:41.480Z,23.20
2022-10-05T12:45:17.307Z,23.20
2022-10-05T12:48:12.921Z,23.30
2022-10-05T12:50:51.558Z,23.40
2022-10-05T12:53:48.631Z,23.40
2022-10-05T12:56:23.067Z,23.40
2022-10-05T12:59:17.907Z,23.50
2022-10-05T13:02:05.768Z,23.40
2022-10-05T13:04:51.455Z,23.50
2022-10-05T13:07:45.620Z,23.50
2022-10-05T13:10:22.903Z,23.50
2022-10-05T13:13:12.143Z,23.50
2022-10-05T13:16:01.581Z,23.50
2022-10-05T13:19:05.217Z,23.60
2022-10-05T13:22:10.900Z,23.60
2022-10-05T13:25:01.661Z,23.60
2022-10-05T13:27:41.586Z,23.60
2022-10-05T13:30:18.802Z,23.60
2022-10-05T13:33:18.412Z,23.60
2022-10-05T13:36:06.132Z,23.70
2022-10-05T13:38:58.654Z,23.60
2022-10-05T13:41:51.964Z,23.60
2022-10-05T13:44:39.851Z,23.60
2022-10-05T13:47:24.255Z,23.60
2022-10-05T13:50:15.210Z,23.50
2022-10-05T13:53:03.263Z,23.40
2022-10-05T13:55:55.268Z,23.40
2022-10-05T13:58:43.344Z,23.50
2022-10-05T14:01:34.803Z,23.50
2022-10-05T14:04:16.615Z,23.50
2022-10-05T14:06:49.840Z,23.60
2022-10-05T14:09:24.413Z,23.60
2022-10-05T14:12:05.364Z,23.60
2022-10-05T14:14:55.216Z,23.50
2022-10-05T14:17:44.170Z,23.40
2022-10-05T14:20:19.185Z,23.30
2022-10-05T14:23:03.298Z,23.20
2022-10-05T14:25:50.460Z,23.10
2022-10-05T14:28:30.467Z,23.10
2022-10-05T14:31:14.979Z,23.10
2022-10-05T14:33:47.930Z,23.10
2022-10-05T14:36:36.522Z,23.10
2022-10-05T14:39:14.498Z,23.10
2022-10-05T14:41:50.954Z,23.10
2022-10-05T14:44:33.873Z,23.00
2022-10-05T14:47:23.077Z,23.00
2022-10-05T14:50:25.767Z,23.10
2022-10-05T14:53:16.878Z,23.10
2022-10-05T14:56:12.715Z,23.00
2022-10-05T14:59:16.666Z,22.90
2022-10-05T15:02:15.514Z,23.00
2022-10-05T15:05:01.286Z,22.90
2022-10-05T15:07:38.899Z,22.90
2022-10-05T15:10:29.740Z,22.80
2022-10-05T15:13:20.184Z,22.80
2022-10-05T15:15:57.643Z,22.70
2022-10-05T15:18:35.197Z,22.70
2022-10-05T15:21:12.867Z,22.60
2022-10-05T15:23:55.405Z,22.60
2022-10-05T15:26:47.499Z,22.50
2022-10-05T15:29:51.340Z,22.50
2022-10-05T15:32:43.302Z,22.40
2022-10-05T15:35:23.046Z,22.40
2022-10-05T15:38:03.351Z,22.40
2022-10-05T15:41:02.604Z,22.40
2022-10-05T15:43:47.357Z,22.30
2022-10-05T15:46:32.069Z,22.30
2022-10-05T15:49:27.934Z,22.20
2022-10-05T15:52:17.913Z,22.20
2022-10-05T15:55:06.003Z,22.10
2022-10-05T15:57:54.881Z,22.10
2022-10-05T16:00:30.380Z,22.00
2022-10-05T16:03:12.885Z,22.00
2022-10-05T16:06:15.743Z,22.00
2022-10-05T16:09:15.618Z,22.00
2022-10-05T16:12:19.272Z,21.90
2022-10-05T16:15:19.109Z,21.80
2022-10-05T16:18:03.792Z,21.80
2022-10-05T16:20:42.690Z,21.70
2022-10-05T16:23:36.633Z,21.70
2022-10-05T16:26:32.935Z,21.60
2022-10-05T16:29:18.330Z,21.50
2022-10-05T16:31:57.941Z,21.50
2022-10-05T16:34:32.338Z,21.50
2022-10-05T16:37:10.672Z,21.40
2022-10-05T16:40:02.893Z,21.40
2022-10-05T16:42:48.274Z,21.40
2022-10-05T16:45:52.216Z,21.30
2022-10-05T16:48:29.122Z,21.20
2022-10-05T16:51:32.390Z,21.10
2022-10-05T16:54:18.735Z,21.10
2022-10-05T16:57:12.569Z,21.00
2022-10-05T17:00:01.340Z,20.90
2022-10-05T17:02:51.073Z,20.90
2022-10-05T17:05:56.259Z,20.80
2022-10-05T17:08:46.028Z,20.70
2022-10-05T17:11:54.414Z,20.60
2022-10-05T17:14:57.477Z,20.50
2022-10-05T17:17:54.051Z,20.40
2022-10-05T17:20:45.254Z,20.30
2022-10-05T17:23:41.530Z,20.30
2022-10-05T17:26:33.120Z,20.20
2022-10-05T17:29:27.013Z,20.10
2022-10-05T17:32:15.948Z,20.10
2022-10-05T17:35:20.398Z,20.00
2022-10-05T17:38:14.602Z,20.00
2022-10-05T17:41:17.786Z,19.90
2022-10-05T17:44:13.685Z,19.90
2022-10-05T17:46:49.994Z,19.30
2022-10-05T17:49:40.059Z,19.70
2022-10-05T17:52:42.405Z,19.70
2022-10-05T17:55:34.268Z,19.70
2022-10-05T17:58:24.466Z,19.60
2022-10-05T18:00:58.082Z,19.60
2022-10-05T18:03:49.828Z,19.50
2022-10-05T18:06:26.149Z,19.50
2022-10-05T18:09:17.514Z,19.40
2022-10-05T18:12:09.175Z,19.40
2022-10-05T18:15:01.583Z,22.10
2022-10-05T18:17:41.402Z,19.30
2022-10-05T18:20:33.410Z,19.20
2022-10-05T18:23:08.027Z,19.20
2022-10-05T18:26:01.610Z,19.20
2022-10-05T18:29:13.985Z,19.10
2022-10-05T18:31:53.537Z,19.10
2022-10-05T18:34:46.815Z,19.10
2022-10-05T18:37:43.121Z,19.00
2022-10-05T18:40:24.184Z,19.00
2022-10-05T18:43:02.674Z,19.00
2022-10-05T18:45:38.116Z,19.00
2022-10-05T18:48:11.979Z,19.00
2022-10-05T18:50:55.458Z,18.90
2022-10-05T18:53:43.544Z,18.90
2022-10-05T18:56:36.747Z,18.80
2022-10-05T18:59:41.152Z,18.80
2022-10-05T19:02:28.683Z,18.70
2022-10-05T19:05:42.985Z,18.60
2022-10-05T19:08:15.417Z,18.60
2022-10-05T19:10:57.957Z,18.60
2022-10-05T19:13:38.194Z,18.60
2022-10-05T19:16:28.289Z,18.60
2022-10-05T19:19:29.339Z,18.60
2022-10-05T19:22:15.064Z,18.50
2022-10-05T19:25:02.423Z,18.50
2022-10-05T19:28:03.056Z,18.40
2022-10-05T19:31:08.105Z,18.40
2022-10-05T19:34:03.579Z,18.40
2022-10-05T19:36:41.508Z,18.30
2022-10-05T19:39:36.565Z,18.30
2022-10-05T19:42:25.575Z,18.20
2022-10-05T19:45:06.678Z,18.20
2022-10-05T19:48:07.842Z,18.20
2022-10-05T19:50:57.945Z,18.10
2022-10-05T19:53:38.958Z,18.10
2022-10-05T19:56:19.594Z,18.10
2022-10-05T19:58:58.245Z,18.00
2022-10-05T20:01:37.556Z,18.10
2022-10-05T20:04:12.239Z,18.00
2022-10-05T20:06:50.987Z,18.00
2022-10-05T20:09:26.331Z,17.90
2022-10-05T20:11:59.413Z,17.80
2022-10-05T20:14:34.043Z,17.80
2022-10-05T20:17:42.812Z,17.80
2022-10-05T20:20:35.837Z,17.80
2022-10-05T20:23:25.985Z,17.80
2022-10-05T20:26:14.442Z,17.70
2022-10-05T20:28:48.000Z,17.70
2022-10-05T20:31:21.885Z,17.70
2022-10-05T20:33:54.865Z,17.70
2022-10-05T20:36:27.535Z,17.70
2022-10-05T20:39:01.452Z,17.70
2022-10-05T20:41:36.564Z,17.70
2022-10-05T20:44:10.171Z,17.70
2022-10-05T20:46:42.810Z,17.60
2022-10-05T20:49:15.551Z,17.60
2022-10-05T20:51:48.498Z,17.50
2022-10-05T20:54:21.127Z,17.50
2022-10-05T20:56:56.017Z,17.50
2022-10-05T20:59:29.071Z,17.50
2022-10-05T21:02:01.879Z,17.40
2022-10-05T21:04:43.121Z,17.40
2022-10-05T21:07:17.420Z,17.30
2022-10-05T21:09:50.119Z,17.30
2022-10-05T21:12:22.506Z,17.30
2022-10-05T21:14:55.033Z,17.30
2022-10-05T21:17:27.518Z,17.30
2022-10-05T21:20:00.163Z,17.20
2022-10-05T21:22:32.680Z,17.30
2022-10-05T21:25:09.099Z,17.30
2022-10-05T21:27:41.715Z,17.30
2022-10-05T21:30:14.407Z,17.30
2022-10-05T21:32:46.880Z,17.30
2022-10-05T21:35:19.597Z,17.30
2022-10-05T21:37:52.158Z,17.20
2022-10-05T21:40:24.685Z,17.10
2022-10-05T21:42:57.183Z,17.10
2022-10-05T21:45:30.435Z,17.20
2022-10-05T21:48:03.445Z,17.20
2022-10-05T21:50:37.619Z,17.30
2022-10-05T21:53:15.115Z,17.30
2022-10-05T21:55:49.935Z,17.40
2022-10-05T21:58:23.613Z,17.40
2022-10-05T22:00:56.246Z,17.50
2022-10-05T22:03:29.012Z,17.40
2022-10-05T22:06:01.870Z,17.40
2022-10-05T22:08:35.041Z,17.50
2022-10-05T22:11:14.803Z,17.40
2022-10-05T22:13:50.264Z,17.50
2022-10-05T22:16:24.478Z,17.50
2022-10-05T22:18:57.245Z,17.50
2022-10-05T22:21:32.131Z,17.60
2022-10-05T22:24:06.661Z,17.60
2022-10-05T22:26:41.728Z,17.70
2022-10-05T22:29:16.062Z,17.70
2022-10-05T22:31:49.152Z,17.60
2022-10-05T22:34:21.694Z,17.60
2022-10-05T22:36:54.297Z,17.50
2022-10-05T22:39:27.179Z,17.50
2022-10-05T22:41:59.689Z,17.40
2022-10-05T22:44:32.949Z,17.30
2022-10-05T22:47:05.588Z,17.30
2022-10-05T22:49:38.040Z,17.20
2022-10-05T22:52:10.599Z,17.20
2022-10-05T22:54:43.303Z,17.10
2022-10-05T22:57:16.288Z,17.10
2022-10-05T22:59:48.811Z,17.10
2022-10-05T23:02:21.994Z,17.10
2022-10-05T23:04:54.523Z,17.10
2022-10-05T23:07:27.289Z,17.20
2022-10-05T23:09:59.722Z,17.30
2022-10-05T23:12:34.619Z,17.30
2022-10-05T23:15:08.609Z,17.30
2022-10-05T23:17:41.093Z,17.40
2022-10-05T23:20:13.642Z,17.40
2022-10-05T23:22:46.418Z,17.40
2022-10-05T23:25:18.966Z,17.40
2022-10-05T23:27:51.753Z,17.40
2022-10-05T23:30:24.226Z,17.40
2022-10-05T23:32:56.842Z,17.30
2022-10-05T23:35:29.318Z,17.30
2022-10-05T23:38:02.009Z,17.20
2022-10-05T23:40:34.475Z,17.20
2022-10-05T23:43:06.957Z,17.10
2022-10-05T23:45:39.446Z,17.10
2022-10-05T23:48:12.124Z,17.10
2022-10-05T23:50:46.834Z,17.10
2022-10-05T23:53:20.148Z,17.10
2022-10-05T23:55:53.851Z,17.10
2022-10-05T23:58:27.259Z,17.10
